| time (UTC) | temp F | wind direction | speed MPH | gust MPH | rain 1hr in | rain 24hr in | rain mn in | humidity % | barometer mb |
| 20260506013019 | 38 | 359 | 0.0 | 3.0 | 0.00 | 0.00 | 0.00 | 79 | 1015.6 |
| 20260506011528 | 38 | 341 | 1.0 | 4.0 | 0.00 | 0.00 | 0.00 | 79 | 1015.6 |
| 20260506010018 | 38 | 343 | 2.0 | 5.0 | 0.00 | 0.00 | 0.00 | 79 | 1015.5 |
| 20260506004530 | 38 | 333 | 2.0 | 5.0 | 0.00 | 0.00 | 0.00 | 80 | 1015.5 |
| 20260506003020 | 38 | 339 | 0.0 | 4.0 | 0.00 | 0.00 | 0.00 | 79 | 1015.6 |
| 20260506001515 | 39 | 327 | 1.0 | 3.0 | 0.00 | 0.00 | 0.00 | 79 | 1015.7 |
| 20260506000017 | 39 | 330 | 1.0 | 5.0 | 0.00 | 0.00 | 0.00 | 78 | 1015.7 |
| 20260505234511 | 39 | 312 | 2.0 | 4.0 | 0.00 | 0.00 | 0.00 | 77 | 1015.6 |
| 20260505233011 | 39 | 359 | 2.0 | 6.0 | 0.00 | 0.00 | 0.00 | 77 | 1015.6 |
| 20260505231508 | 39 | 297 | 2.0 | 8.0 | 0.00 | 0.00 | 0.00 | 77 | 1015.4 |
| 20260505230007 | 39 | 293 | 2.0 | 5.0 | 0.00 | 0.00 | 0.00 | 77 | 1015.5 |
| 20260505224506 | 39 | 297 | 2.0 | 4.0 | 0.00 | 0.00 | 0.00 | 76 | 1015.5 |
| 20260505223006 | 40 | 314 | 2.0 | 4.0 | 0.00 | 0.00 | 0.00 | 76 | 1015.6 |
| 20260505221505 | 40 | 315 | 1.0 | 8.0 | 0.00 | 0.00 | 0.00 | 75 | 1015.5 |
| 20260505220002 | 40 | 303 | 4.0 | 9.0 | 0.00 | 0.00 | 0.00 | 75 | 1015.7 |
| 20260505214502 | 40 | 316 | 3.0 | 6.0 | 0.00 | 0.00 | 0.00 | 75 | 1015.5 |
| 20260505213001 | 40 | 282 | 3.0 | 8.0 | 0.00 | 0.00 | 0.00 | 73 | 1015.5 |
| 20260505211501 | 40 | 284 | 2.0 | 10.0 | 0.00 | 0.00 | 0.00 | 73 | 1015.5 |
| 20260505210107 | 40 | 298 | 5.0 | 10.0 | 0.00 | 0.00 | 0.00 | 72 | 1015.6 |
| 20260505204601 | 40 | 340 | 4.0 | 9.0 | 0.00 | 0.00 | 0.00 | 74 | 1015.5 |
| 20260505203100 | 40 | 310 | 2.0 | 6.0 | 0.00 | 0.00 | 0.00 | 75 | 1015.5 |
| 20260505201601 | 41 | 326 | 4.0 | 10.0 | 0.00 | 0.00 | 0.00 | 74 | 1015.6 |
| 20260505200059 | 41 | 319 | 4.0 | 10.0 | 0.00 | 0.00 | 0.00 | 72 | 1015.6 |
| 20260505194601 | 41 | 299 | 2.0 | 9.0 | 0.00 | 0.00 | 0.00 | 72 | 1015.5 |
| 20260505193125 | 42 | 314 | 2.0 | 6.0 | 0.00 | 0.00 | 0.00 | 71 | 1015.4 |
| 20260505191604 | 42 | 324 | 5.0 | 11.0 | 0.00 | 0.00 | 0.00 | 71 | 1015.3 |
| 20260505190054 | 43 | 306 | 2.0 | 9.0 | 0.00 | 0.00 | 0.00 | 68 | 1015.2 |
| 20260505184556 | 43 | 309 | 2.0 | 10.0 | 0.00 | 0.00 | 0.00 | 67 | 1015.0 |
| 20260505183054 | 43 | 330 | 1.0 | 6.0 | 0.00 | 0.00 | 0.00 | 67 | 1015.0 |
| 20260505181554 | 42 | 296 | 3.0 | 8.0 | 0.00 | 0.00 | 0.00 | 72 | 1014.9 |
| 20260505180052 | 43 | 288 | 4.0 | 11.0 | 0.00 | 0.00 | 0.00 | 69 | 1015.0 |
| 20260505174552 | 45 | 289 | 2.0 | 8.0 | 0.00 | 0.00 | 0.00 | 67 | 1015.0 |
| 20260505173051 | 45 | 329 | 3.0 | 9.0 | 0.00 | 0.00 | 0.00 | 66 | 1014.9 |
| 20260505171552 | 45 | 318 | 1.0 | 11.0 | 0.00 | 0.00 | 0.00 | 66 | 1014.9 |
| 20260505170050 | 44 | 328 | 4.0 | 9.0 | 0.00 | 0.00 | 0.00 | 64 | 1014.9 |
| 20260505164550 | 45 | 345 | 4.0 | 12.0 | 0.00 | 0.00 | 0.00 | 66 | 1015.0 |
| 20260505163050 | 45 | 308 | 3.0 | 11.0 | 0.00 | 0.00 | 0.00 | 66 | 1014.9 |
| 20260505161549 | 44 | 263 | 5.0 | 13.0 | 0.00 | 0.00 | 0.00 | 67 | 1014.9 |
| 20260505153049 | 46 | 359 | 6.0 | 12.0 | 0.00 | 0.01 | 0.00 | 63 | 1015.0 |
| 20260505151546 | 46 | 272 | 4.0 | 12.0 | 0.00 | 0.01 | 0.00 | 66 | 1014.9 |
| 20260505124541 | 43 | 328 | 6.0 | 12.0 | 0.00 | 0.01 | 0.00 | 74 | 1015.0 |
| 20260505123052 | 44 | 261 | 7.0 | 13.0 | 0.00 | 0.01 | 0.00 | 69 | 1014.7 |
| 20260505121540 | 46 | 310 | 5.0 | 9.0 | 0.00 | 0.01 | 0.00 | 65 | 1014.7 |
| 20260505120050 | 44 | 328 | 4.0 | 12.0 | 0.00 | 0.01 | 0.00 | 68 | 1014.7 |
| 20260505114537 | 45 | 359 | 5.0 | 10.0 | 0.00 | 0.01 | 0.00 | 66 | 1014.8 |
| 20260505113036 | 45 | 322 | 3.0 | 9.0 | 0.00 | 0.01 | 0.00 | 65 | 1014.7 |
| 20260505111536 | 45 | 335 | 3.0 | 8.0 | 0.00 | 0.01 | 0.00 | 66 | 1014.6 |
| 20260505101534 | 43 | 315 | 2.0 | 5.0 | 0.00 | 0.01 | 0.00 | 70 | 1014.5 |
| 20260505100032 | 43 | 299 | 3.0 | 5.0 | 0.00 | 0.01 | 0.00 | 71 | 1014.6 |
| 20260505094530 | 42 | 320 | 2.0 | 6.0 | 0.00 | 0.01 | 0.00 | 70 | 1014.6 |
| 20260505093030 | 42 | 320 | 3.0 | 8.0 | 0.00 | 0.01 | 0.00 | 68 | 1014.6 |
| 20260505091531 | 43 | 324 | 2.0 | 9.0 | 0.00 | 0.01 | 0.00 | 66 | 1014.5 |
| 20260505090026 | 44 | 311 | 2.0 | 4.0 | 0.00 | 0.01 | 0.00 | 61 | 1014.4 |
| 20260505084540 | 45 | 324 | 0.0 | 4.0 | 0.00 | 0.01 | 0.00 | 62 | 1014.3 |
| 20260505083041 | 44 | 350 | 0.0 | 3.0 | 0.00 | 0.01 | 0.00 | 62 | 1014.2 |
| 20260505081525 | 44 | 354 | 1.0 | 5.0 | 0.00 | 0.01 | 0.00 | 63 | 1014.1 |
| 20260505080032 | 43 | 323 | 0.0 | 5.0 | 0.00 | 0.01 | 0.00 | 63 | 1014.0 |
| 20260505074519 | 43 | 343 | 0.0 | 3.0 | 0.00 | 0.01 | 0.00 | 65 | 1014.0 |
| 20260505073024 | 42 | 354 | 1.0 | 3.0 | 0.00 | 0.01 | 0.00 | 69 | 1014.0 |
| 20260505071510 | 41 | 293 | 0.0 | 4.0 | 0.00 | 0.01 | 0.00 | 71 | 1013.9 |
| 20260505070008 | 41 | 322 | 0.0 | 2.0 | 0.00 | 0.01 | 0.00 | 75 | 1013.9 |
| 20260505064505 | 40 | 322 | 0.0 | 3.0 | 0.00 | 0.01 | 0.00 | 76 | 1014.0 |
| 20260505063003 | 40 | 325 | 0.0 | 2.0 | 0.00 | 0.01 | 0.00 | 77 | 1014.0 |
| 20260505061502 | 39 | 339 | 1.0 | 3.0 | 0.00 | 0.01 | 0.00 | 79 | 1014.1 |
| 20260505060104 | 39 | 339 | 0.0 | 3.0 | 0.00 | 0.01 | 0.00 | 83 | 1014.2 |
| 20260505054601 | 38 | 339 | 0.0 | 2.0 | 0.00 | 0.01 | 0.00 | 85 | 1014.1 |
| 20260505053059 | 37 | 135 | 0.0 | 3.0 | 0.00 | 0.01 | 0.00 | 86 | 1014.0 |
| 20260505051557 | 37 | 145 | 0.0 | 0.0 | 0.00 | 0.01 | 0.00 | 87 | 1014.1 |
| 20260505041601 | 34 | 347 | 0.0 | 2.0 | 0.00 | 0.01 | 0.00 | 87 | 1013.4 |
| 20260505040055 | 34 | 347 | 0.0 | 0.0 | 0.00 | 0.01 | 0.00 | 87 | 1013.3 |
| 20260505034550 | 33 | 346 | 0.0 | 0.0 | 0.00 | 0.01 | 0.00 | 86 | 1013.3 |
| 20260505033049 | 33 | 347 | 0.0 | 0.0 | 0.00 | 0.01 | 0.00 | 85 | 1013.6 |
| 20260505031548 | 34 | 346 | 0.0 | 0.0 | 0.00 | 0.01 | 0.00 | 85 | 1013.5 |
| 20260505030105 | 34 | 359 | 0.0 | 1.0 | 0.00 | 0.01 | 0.00 | 84 | 1013.4 |
| 20260505024549 | 34 | 346 | 0.0 | 0.0 | 0.00 | 0.01 | 0.00 | 83 | 1013.5 |
| 20260505023044 | 35 | 347 | 0.0 | 0.0 | 0.00 | 0.01 | 0.00 | 83 | 1013.6 |
| 20260505021543 | 35 | 359 | 0.0 | 0.0 | 0.00 | 0.01 | 0.00 | 82 | 1013.5 |
| 20260505020043 | 35 | 346 | 0.0 | 0.0 | 0.00 | 0.01 | 0.00 | 81 | 1013.4 |
| 20260505014559 | 36 | 346 | 0.0 | 1.0 | 0.00 | 0.01 | 0.00 | 81 | 1013.6 |